Time;durP1;ratioP1;P1;durP2;ratioP2;P2;SDS_P1;SDS_P2;PMS_P1;PMS_P2;Temp;Humidity;BMP_temperature;BMP_pressure;BME280_temperature;BME280_humidity;BME280_pressure;Samples;Min_cycle;Max_cycle;Signal;HPM_P1;HPM_P2
2023/12/13 00:01:57;;;;;;;52.80;26.93;;;5.00;99.90;;;;;;5030550;28;20200;-80
2023/12/13 00:04:45;;;;;;;53.23;27.67;;;5.00;99.90;;;;;;5032769;28;20605;-80
2023/12/13 00:07:33;;;;;;;55.03;27.27;;;5.00;99.90;;;;;;5031791;28;20582;-79
2023/12/13 00:10:21;;;;;;;53.60;27.33;;;5.10;99.90;;;;;;5032762;28;20823;-79
2023/12/13 00:13:08;;;;;;;52.63;27.13;;;5.10;99.90;;;;;;5031875;28;20216;-79
2023/12/13 00:15:55;;;;;;;53.63;25.50;;;5.10;99.90;;;;;;5031912;28;20198;-78
2023/12/13 00:18:46;;;;;;;50.27;26.73;;;5.10;99.90;;;;;;5032704;28;20276;-79
2023/12/13 00:21:35;;;;;;;51.70;26.00;;;5.20;99.90;;;;;;5017496;28;20195;-80
2023/12/13 00:24:22;;;;;;;55.13;27.17;;;5.20;99.90;;;;;;5031786;28;20195;-79
2023/12/13 00:27:10;;;;;;;49.60;25.87;;;5.30;99.90;;;;;;5031824;28;20223;-79
2023/12/13 00:29:57;;;;;;;49.60;25.93;;;5.30;99.90;;;;;;5032079;28;20582;-79
2023/12/13 00:32:45;;;;;;;50.97;26.10;;;5.30;99.90;;;;;;5031552;28;20286;-79
2023/12/13 00:35:32;;;;;;;51.53;26.77;;;5.40;99.90;;;;;;5031495;28;20673;-79
2023/12/13 00:38:20;;;;;;;49.30;25.63;;;5.40;99.90;;;;;;5036329;28;20297;-79
2023/12/13 00:41:07;;;;;;;49.40;26.10;;;5.40;99.90;;;;;;5036195;28;20504;-79
2023/12/13 00:43:55;;;;;;;50.47;25.50;;;5.40;99.90;;;;;;5036332;28;20717;-79
2023/12/13 00:46:42;;;;;;;47.33;25.57;;;5.40;99.90;;;;;;5036105;28;20196;-79
2023/12/13 00:49:29;;;;;;;51.33;26.77;;;5.40;99.90;;;;;;5036621;28;20193;-79
2023/12/13 00:52:17;;;;;;;48.40;25.63;;;5.40;99.90;;;;;;5035343;28;20365;-79
2023/12/13 00:55:05;;;;;;;51.03;25.27;;;5.40;99.90;;;;;;5035375;28;20195;-80
2023/12/13 00:57:53;;;;;;;48.40;25.70;;;5.50;99.90;;;;;;5036390;28;20278;-79
2023/12/13 01:00:40;;;;;;;49.67;24.93;;;5.40;99.90;;;;;;5035728;28;20318;-79
2023/12/13 01:03:28;;;;;;;48.70;24.63;;;5.40;99.90;;;;;;5035644;28;20733;-78
2023/12/13 01:06:15;;;;;;;47.53;24.47;;;5.50;99.90;;;;;;5034541;28;20187;-79
2023/12/13 01:09:03;;;;;;;46.60;24.20;;;5.50;99.90;;;;;;5034730;28;20203;-79
2023/12/13 01:11:51;;;;;;;49.23;24.93;;;5.50;99.90;;;;;;5035372;28;20216;-79
2023/12/13 01:14:38;;;;;;;46.90;23.97;;;5.40;99.90;;;;;;5034941;28;20197;-79
2023/12/13 01:17:26;;;;;;;46.77;23.50;;;5.50;99.90;;;;;;5034779;28;20276;-79
2023/12/13 01:20:14;;;;;;;46.00;24.23;;;5.50;99.90;;;;;;5034905;28;20656;-79
2023/12/13 01:23:01;;;;;;;48.03;24.00;;;5.40;99.90;;;;;;5035312;28;20191;-79
2023/12/13 01:25:49;;;;;;;45.80;23.70;;;5.40;99.90;;;;;;5036271;28;20218;-78
2023/12/13 01:28:36;;;;;;;49.07;23.63;;;5.40;99.90;;;;;;5035212;28;20200;-79
2023/12/13 01:31:23;;;;;;;50.60;23.60;;;5.30;99.90;;;;;;5034995;28;20660;-79
2023/12/13 01:34:11;;;;;;;50.87;24.67;;;5.40;99.90;;;;;;5035099;28;20220;-79
2023/12/13 01:36:58;;;;;;;50.13;24.90;;;5.30;99.90;;;;;;5034039;28;20199;-79
2023/12/13 01:39:45;;;;;;;55.70;24.90;;;5.20;99.90;;;;;;5033514;28;20663;-79
2023/12/13 01:42:36;;;;;;;58.47;25.60;;;5.30;99.90;;;;;;5034942;28;20470;-79
2023/12/13 01:45:24;;;;;;;59.20;27.03;;;5.20;99.90;;;;;;5033383;28;20294;-78
2023/12/13 01:48:12;;;;;;;56.20;26.00;;;5.30;99.90;;;;;;5033501;28;20274;-79
2023/12/13 01:50:59;;;;;;;57.77;26.77;;;5.20;99.90;;;;;;5031945;28;20274;-79
2023/12/13 01:53:47;;;;;;;56.10;24.77;;;5.20;99.90;;;;;;5033357;28;20223;-79
2023/12/13 01:56:37;;;;;;;57.60;25.83;;;5.20;99.90;;;;;;5033553;28;20325;-79
2023/12/13 01:59:28;;;;;;;56.17;25.77;;;5.20;99.90;;;;;;5035165;28;20195;-79
2023/12/13 02:02:15;;;;;;;60.33;26.13;;;5.20;99.90;;;;;;5035712;28;20674;-79
2023/12/13 02:05:04;;;;;;;58.07;26.03;;;5.20;99.90;;;;;;5033614;28;20207;-79
2023/12/13 02:07:51;;;;;;;53.30;24.63;;;5.20;99.90;;;;;;5034474;28;20654;-78
2023/12/13 02:10:41;;;;;;;59.90;27.17;;;5.20;99.90;;;;;;5034737;28;20219;-79
2023/12/13 02:13:29;;;;;;;56.93;25.53;;;5.20;99.90;;;;;;5034342;28;20228;-79
2023/12/13 02:16:16;;;;;;;55.20;24.53;;;5.20;99.90;;;;;;5033933;28;20676;-79
2023/12/13 02:19:05;;;;;;;60.03;25.77;;;5.20;99.90;;;;;;5033835;28;20668;-79
2023/12/13 02:21:52;;;;;;;54.93;24.43;;;5.20;99.90;;;;;;5032420;28;20249;-79
2023/12/13 02:24:42;;;;;;;54.50;25.03;;;5.20;99.90;;;;;;5033027;28;20282;-79
2023/12/13 02:27:29;;;;;;;55.63;24.53;;;5.20;99.90;;;;;;5033304;28;20645;-79
2023/12/13 02:30:18;;;;;;;50.83;24.10;;;5.30;99.90;;;;;;5032935;28;20235;-79
2023/12/13 02:33:11;;;;;;;54.77;25.00;;;5.30;99.90;;;;;;5033366;28;20248;-80
2023/12/13 02:36:00;;;;;;;54.23;24.80;;;5.20;99.90;;;;;;5033973;28;20200;-78
2023/12/13 02:38:47;;;;;;;53.23;23.80;;;5.20;99.90;;;;;;5033568;28;20196;-79
2023/12/13 02:41:35;;;;;;;50.27;23.10;;;5.10;99.90;;;;;;5033688;28;20334;-78
2023/12/13 02:44:22;;;;;;;52.03;23.73;;;5.00;99.90;;;;;;5033312;28;20198;-79
2023/12/13 02:47:10;;;;;;;49.57;22.93;;;5.00;99.90;;;;;;5033338;28;20667;-79
2023/12/13 02:49:57;;;;;;;51.60;24.20;;;5.00;99.90;;;;;;5033780;28;20237;-79
2023/12/13 02:52:45;;;;;;;51.63;23.23;;;5.00;99.90;;;;;;5032033;28;20215;-79
2023/12/13 02:55:33;;;;;;;53.13;24.50;;;5.00;99.90;;;;;;5033651;28;20338;-79
2023/12/13 02:58:20;;;;;;;53.40;24.03;;;5.10;99.90;;;;;;5033523;28;20271;-79
2023/12/13 03:01:07;;;;;;;53.27;23.30;;;5.00;99.90;;;;;;5033457;28;20673;-79
2023/12/13 03:03:55;;;;;;;53.93;23.27;;;5.00;99.90;;;;;;5033766;28;20312;-79
2023/12/13 03:06:43;;;;;;;51.70;22.83;;;4.90;99.90;;;;;;5034759;28;20194;-79
2023/12/13 03:09:30;;;;;;;48.93;21.57;;;4.90;99.90;;;;;;5033550;28;20204;-79
2023/12/13 03:12:17;;;;;;;48.47;21.53;;;4.90;99.90;;;;;;5033356;28;20316;-79
2023/12/13 03:15:06;;;;;;;52.27;22.97;;;5.00;99.90;;;;;;5032350;28;20251;-79
2023/12/13 03:17:53;;;;;;;50.27;22.47;;;5.00;99.90;;;;;;5032563;28;20205;-79
2023/12/13 03:20:41;;;;;;;50.73;21.77;;;5.00;99.90;;;;;;5033782;28;20227;-78
2023/12/13 03:23:28;;;;;;;49.90;22.07;;;5.00;99.90;;;;;;5032690;28;20202;-78
2023/12/13 03:26:17;;;;;;;54.33;22.73;;;4.90;99.90;;;;;;5032645;28;20302;-79
2023/12/13 03:29:04;;;;;;;59.20;23.13;;;4.90;99.90;;;;;;5032918;28;20188;-79
2023/12/13 03:31:52;;;;;;;55.07;22.17;;;4.90;99.90;;;;;;5033051;28;20544;-78
2023/12/13 03:34:40;;;;;;;62.47;22.33;;;4.90;99.90;;;;;;5032845;28;20226;-79
2023/12/13 03:37:31;;;;;;;57.80;23.37;;;5.00;99.90;;;;;;5032357;28;20196;-79
2023/12/13 03:40:19;;;;;;;62.27;23.13;;;5.10;99.90;;;;;;5033957;28;20659;-79
2023/12/13 03:43:06;;;;;;;69.50;23.67;;;5.10;99.90;;;;;;5032252;28;20254;-79
2023/12/13 03:45:53;;;;;;;63.77;23.60;;;5.10;99.90;;;;;;5031624;28;20313;-78
2023/12/13 03:48:41;;;;;;;63.07;23.90;;;5.10;99.90;;;;;;5032924;28;20206;-79
2023/12/13 03:51:28;;;;;;;68.93;24.27;;;5.00;99.90;;;;;;5033887;28;20196;-79
2023/12/13 03:54:16;;;;;;;68.60;25.27;;;5.00;99.90;;;;;;5031441;28;20690;-79
2023/12/13 03:57:03;;;;;;;63.67;23.73;;;5.10;99.90;;;;;;5031273;28;20298;-79
2023/12/13 03:59:51;;;;;;;69.93;24.50;;;5.10;99.90;;;;;;5032492;28;20191;-79
2023/12/13 04:02:39;;;;;;;62.77;23.90;;;5.00;99.90;;;;;;5031781;28;20292;-79
2023/12/13 04:05:26;;;;;;;64.20;23.93;;;5.10;99.90;;;;;;5032434;28;20276;-78
2023/12/13 04:08:14;;;;;;;64.70;23.17;;;5.00;99.90;;;;;;5032439;28;20572;-79
2023/12/13 04:11:01;;;;;;;68.67;23.67;;;5.00;99.90;;;;;;5031373;28;20215;-78
2023/12/13 04:13:49;;;;;;;62.67;22.67;;;5.00;99.90;;;;;;5031769;28;20224;-78
2023/12/13 04:16:37;;;;;;;63.60;23.20;;;5.00;99.90;;;;;;5030263;28;20370;-79
2023/12/13 04:19:26;;;;;;;67.10;23.87;;;5.00;99.90;;;;;;5031160;28;20191;-79
2023/12/13 04:22:14;;;;;;;67.00;24.53;;;4.90;99.90;;;;;;5031829;28;20330;-78
2023/12/13 04:25:01;;;;;;;65.67;23.77;;;4.90;99.90;;;;;;5032211;28;20365;-79
2023/12/13 04:27:49;;;;;;;67.23;24.07;;;4.90;99.90;;;;;;5033608;28;20755;-79
2023/12/13 04:30:36;;;;;;;79.70;24.63;;;4.90;99.90;;;;;;5032730;28;20197;-79
2023/12/13 04:33:24;;;;;;;68.00;23.50;;;5.00;99.90;;;;;;5032442;28;20293;-79
2023/12/13 04:36:12;;;;;;;71.40;22.83;;;4.90;99.90;;;;;;5032021;28;20652;-78
2023/12/13 04:39:00;;;;;;;63.00;24.13;;;4.90;99.90;;;;;;5031064;28;20265;-79
2023/12/13 04:41:47;;;;;;;63.40;22.83;;;4.80;99.90;;;;;;5031601;28;20216;-78
2023/12/13 04:44:34;;;;;;;66.50;22.87;;;4.80;99.90;;;;;;5032138;28;20196;-78
2023/12/13 04:47:22;;;;;;;71.03;24.07;;;4.80;99.90;;;;;;5031576;28;20720;-78
2023/12/13 04:50:10;;;;;;;68.40;23.53;;;4.80;99.90;;;;;;5032607;28;20201;-79
2023/12/13 04:52:58;;;;;;;64.33;22.60;;;4.90;99.90;;;;;;5017419;28;20649;-79
2023/12/13 04:55:45;;;;;;;65.10;22.80;;;4.90;99.90;;;;;;5030796;28;20229;-78
2023/12/13 04:58:33;;;;;;;68.67;23.10;;;4.90;99.90;;;;;;5032037;28;20202;-78
2023/12/13 05:01:22;;;;;;;65.27;23.67;;;4.80;99.90;;;;;;5032138;28;20771;-79
2023/12/13 05:04:09;;;;;;;66.60;22.77;;;4.80;99.90;;;;;;5032102;28;20660;-78
2023/12/13 05:06:57;;;;;;;65.17;22.83;;;4.80;99.90;;;;;;5033580;28;20321;-78
2023/12/13 05:09:44;;;;;;;72.97;23.33;;;4.80;99.90;;;;;;5031791;28;20747;-79
2023/12/13 05:12:32;;;;;;;69.00;22.40;;;4.80;99.90;;;;;;5030446;28;20227;-79
2023/12/13 05:15:19;;;;;;;70.50;23.47;;;4.90;99.90;;;;;;5031308;28;20273;-78
2023/12/13 05:18:07;;;;;;;68.40;23.07;;;4.90;99.90;;;;;;5031509;28;20196;-79
2023/12/13 05:20:54;;;;;;;62.70;21.60;;;4.90;99.90;;;;;;5031971;28;20192;-79
2023/12/13 05:23:42;;;;;;;70.17;23.87;;;4.90;99.90;;;;;;5031555;28;20249;-78
2023/12/13 05:26:29;;;;;;;64.50;23.37;;;4.80;99.90;;;;;;5034513;28;20295;-78
2023/12/13 05:29:16;;;;;;;66.83;22.63;;;4.90;99.90;;;;;;5035401;28;20202;-78
2023/12/13 05:32:04;;;;;;;70.00;22.77;;;4.90;99.90;;;;;;5049161;28;20199;-78
2023/12/13 05:34:51;;;;;;;67.17;23.53;;;4.80;99.90;;;;;;5034838;28;20379;-79
2023/12/13 05:37:39;;;;;;;71.30;24.27;;;4.90;99.90;;;;;;5035558;28;20196;-79
2023/12/13 05:40:26;;;;;;;68.60;23.33;;;4.90;99.90;;;;;;5035074;28;20711;-78
2023/12/13 05:43:13;;;;;;;66.97;24.10;;;4.80;99.90;;;;;;5035631;28;20189;-78
2023/12/13 05:46:02;;;;;;;67.13;24.70;;;4.80;99.90;;;;;;5035233;28;20200;-79
2023/12/13 05:48:50;;;;;;;65.33;24.43;;;4.80;99.90;;;;;;5034074;28;20327;-79
2023/12/13 05:51:37;;;;;;;67.07;25.27;;;4.80;99.90;;;;;;5035179;28;20663;-78
2023/12/13 05:54:25;;;;;;;71.07;24.77;;;4.90;99.90;;;;;;5035029;28;20243;-79
2023/12/13 05:57:12;;;;;;;70.33;24.43;;;4.90;99.90;;;;;;5035086;28;20215;-78
2023/12/13 06:00:00;;;;;;;64.80;24.87;;;4.90;99.90;;;;;;5034416;28;20277;-79
2023/12/13 06:02:49;;;;;;;68.33;24.90;;;4.90;99.90;;;;;;5034331;28;20236;-80
2023/12/13 06:05:43;;;;;;;67.17;23.90;;;4.90;99.90;;;;;;5034898;28;20198;-79
2023/12/13 06:08:30;;;;;;;61.90;24.57;;;4.90;99.90;;;;;;5033299;28;20195;-80
2023/12/13 06:11:18;;;;;;;64.97;24.43;;;4.90;99.90;;;;;;5034324;28;20672;-78
2023/12/13 06:14:05;;;;;;;69.07;25.20;;;4.90;99.90;;;;;;5033308;28;20225;-79
2023/12/13 06:16:52;;;;;;;67.03;25.73;;;4.90;99.90;;;;;;5034212;28;20196;-79
2023/12/13 06:19:40;;;;;;;68.67;24.80;;;4.80;99.90;;;;;;5033422;28;20198;-79
2023/12/13 06:22:28;;;;;;;59.17;24.47;;;4.80;99.90;;;;;;5033984;28;20683;-78
2023/12/13 06:25:15;;;;;;;63.93;24.97;;;4.70;99.90;;;;;;5034742;28;20198;-79
2023/12/13 06:28:04;;;;;;;63.57;25.00;;;4.80;99.90;;;;;;5035513;28;20274;-78
2023/12/13 06:30:52;;;;;;;59.03;25.03;;;4.80;99.90;;;;;;5033743;28;20286;-78
2023/12/13 06:33:40;;;;;;;57.80;23.73;;;4.80;99.90;;;;;;5033515;28;20346;-79
2023/12/13 06:36:27;;;;;;;65.70;25.07;;;4.80;99.90;;;;;;5033494;28;20283;-78
2023/12/13 06:39:15;;;;;;;64.10;25.50;;;4.90;99.90;;;;;;5033073;28;20483;-78
2023/12/13 06:42:02;;;;;;;59.83;24.23;;;4.80;99.90;;;;;;5033122;28;20230;-78
2023/12/13 06:44:50;;;;;;;61.20;24.77;;;4.80;99.90;;;;;;5033622;28;20279;-78
2023/12/13 06:47:37;;;;;;;61.80;24.73;;;4.80;99.90;;;;;;5032766;28;20197;-79
2023/12/13 06:50:26;;;;;;;60.60;25.23;;;4.80;99.90;;;;;;5033600;28;20203;-79
2023/12/13 06:53:13;;;;;;;64.43;25.83;;;4.80;99.90;;;;;;5032534;28;20192;-79
2023/12/13 06:56:00;;;;;;;62.97;26.33;;;4.80;99.90;;;;;;5032902;28;20263;-81
2023/12/13 06:58:49;;;;;;;66.53;25.57;;;4.80;99.90;;;;;;5033095;28;20195;-81
2023/12/13 07:01:36;;;;;;;57.60;24.53;;;4.80;99.90;;;;;;5031258;28;20597;-78
2023/12/13 07:04:24;;;;;;;69.47;26.00;;;4.80;99.90;;;;;;5031673;28;20711;-78
2023/12/13 07:07:15;;;;;;;67.93;26.03;;;4.80;99.90;;;;;;5033382;28;20189;-79
2023/12/13 07:10:03;;;;;;;65.47;25.70;;;4.90;99.90;;;;;;5032690;28;20217;-79
2023/12/13 07:12:50;;;;;;;64.60;25.87;;;4.90;99.90;;;;;;5032856;28;20330;-79
2023/12/13 07:15:38;;;;;;;62.73;25.50;;;4.80;99.90;;;;;;5032605;28;20342;-78
2023/12/13 07:18:25;;;;;;;64.00;25.17;;;4.80;99.90;;;;;;5033372;28;20191;-78
2023/12/13 07:21:13;;;;;;;64.67;25.70;;;4.80;99.90;;;;;;5033376;28;20206;-78
2023/12/13 07:24:00;;;;;;;66.20;27.00;;;4.90;99.90;;;;;;5032049;28;20195;-78
2023/12/13 07:26:48;;;;;;;64.57;25.83;;;4.80;99.90;;;;;;5033265;28;20212;-78
2023/12/13 07:29:35;;;;;;;66.80;25.77;;;4.70;99.90;;;;;;5032917;28;20246;-78
2023/12/13 07:32:22;;;;;;;68.87;27.97;;;4.80;99.90;;;;;;5032756;28;20227;-79
2023/12/13 07:35:10;;;;;;;74.50;27.00;;;4.80;99.90;;;;;;5031832;28;20228;-78
2023/12/13 07:37:58;;;;;;;67.63;26.83;;;4.80;99.90;;;;;;5032131;28;20731;-78
2023/12/13 07:40:47;;;;;;;68.13;26.73;;;4.70;99.90;;;;;;5032686;28;20218;-78
2023/12/13 07:43:35;;;;;;;66.43;28.33;;;4.70;99.90;;;;;;5032159;28;20223;-79
2023/12/13 07:46:22;;;;;;;70.20;27.37;;;4.80;99.90;;;;;;5030650;28;20223;-79
2023/12/13 07:49:10;;;;;;;67.43;27.77;;;4.70;99.90;;;;;;5031073;28;20207;-79
2023/12/13 07:51:57;;;;;;;69.33;28.23;;;4.60;99.90;;;;;;5030323;28;20545;-78
2023/12/13 07:54:44;;;;;;;66.43;27.57;;;4.60;99.90;;;;;;5032358;28;20679;-78
2023/12/13 07:57:32;;;;;;;71.00;28.70;;;4.60;99.90;;;;;;5032470;28;20227;-79
2023/12/13 08:00:20;;;;;;;68.43;28.80;;;4.60;99.90;;;;;;5030892;28;20199;-78
2023/12/13 08:03:07;;;;;;;69.63;27.83;;;4.50;99.90;;;;;;5032006;28;20609;-79
2023/12/13 08:05:55;;;;;;;70.33;28.37;;;4.50;99.90;;;;;;5032642;28;20203;-80
2023/12/13 08:08:45;;;;;;;65.30;29.23;;;4.50;99.90;;;;;;5031736;28;20199;-81
2023/12/13 08:11:33;;;;;;;69.03;30.33;;;4.40;99.90;;;;;;5031594;28;20598;-84
2023/12/13 08:14:21;;;;;;;64.43;28.63;;;4.30;99.90;;;;;;5032719;28;20360;-83
2023/12/13 08:17:10;;;;;;;69.23;28.47;;;4.40;99.90;;;;;;5032474;28;20383;-83
2023/12/13 08:19:58;;;;;;;67.37;28.80;;;4.30;99.90;;;;;;5030610;28;20245;-83
2023/12/13 08:22:46;;;;;;;72.27;31.50;;;4.40;99.90;;;;;;5031204;28;20199;-80
2023/12/13 08:25:38;;;;;;;65.80;28.73;;;4.40;99.90;;;;;;5030864;28;20196;-77
2023/12/13 08:28:25;;;;;;;71.80;29.73;;;4.50;99.90;;;;;;5032004;28;20194;-77
2023/12/13 08:31:12;;;;;;;69.67;29.93;;;4.40;99.90;;;;;;5031007;28;20194;-79
2023/12/13 08:34:10;;;;;;;71.93;30.77;;;4.50;99.90;;;;;;5030870;28;20234;-81
2023/12/13 08:37:00;;;;;;;71.00;29.30;;;4.60;99.90;;;;;;5030586;28;20191;-84
2023/12/13 08:39:49;;;;;;;68.03;30.40;;;4.70;99.90;;;;;;5031871;28;20286;-86
2023/12/13 08:42:37;;;;;;;76.80;31.50;;;4.70;99.90;;;;;;5031554;28;20592;-83
2023/12/13 08:45:31;;;;;;;77.87;31.03;;;4.70;99.90;;;;;;5030205;28;20235;-78
2023/12/13 08:48:19;;;;;;;77.60;32.03;;;4.80;99.90;;;;;;5032127;28;20235;-78
2023/12/13 08:51:07;;;;;;;80.17;31.73;;;4.60;99.90;;;;;;5031486;28;20252;-78
2023/12/13 08:53:55;;;;;;;77.27;30.17;;;4.60;99.90;;;;;;5031877;28;20231;-78
2023/12/13 08:56:42;;;;;;;76.93;31.83;;;4.60;99.90;;;;;;5031353;28;20402;-79
2023/12/13 08:59:30;;;;;;;78.20;32.13;;;4.60;99.90;;;;;;5034977;28;20207;-78
2023/12/13 09:02:19;;;;;;;75.73;30.37;;;4.60;99.90;;;;;;5036408;28;20289;-86
2023/12/13 09:05:09;;;;;;;79.33;33.13;;;4.70;99.90;;;;;;5035272;28;20253;-86
2023/12/13 09:08:00;;;;;;;81.83;32.17;;;4.70;99.90;;;;;;5035136;28;20309;-84
2023/12/13 09:10:48;;;;;;;82.20;32.73;;;4.70;99.90;;;;;;5034385;28;20211;-82
2023/12/13 09:13:35;;;;;;;78.70;32.70;;;4.70;99.90;;;;;;5033996;28;20632;-81
2023/12/13 09:16:23;;;;;;;81.20;33.33;;;4.70;99.90;;;;;;5036526;28;20284;-83
2023/12/13 09:19:10;;;;;;;77.30;33.17;;;4.70;99.90;;;;;;5034985;28;20191;-83
2023/12/13 09:21:58;;;;;;;75.20;33.20;;;4.70;99.90;;;;;;5035534;28;20592;-84
2023/12/13 09:24:46;;;;;;;79.10;34.20;;;4.80;99.90;;;;;;5034968;28;20202;-82
2023/12/13 09:27:34;;;;;;;72.23;32.57;;;4.70;99.90;;;;;;5034622;28;20341;-82
2023/12/13 09:30:28;;;;;;;78.60;32.77;;;4.70;99.90;;;;;;5035339;28;20191;-83
2023/12/13 09:33:18;;;;;;;72.90;32.33;;;4.70;99.90;;;;;;5034955;28;20209;-83
2023/12/13 09:36:07;;;;;;;73.67;33.57;;;4.60;99.90;;;;;;5036434;28;20229;-84
2023/12/13 09:38:54;;;;;;;68.50;32.43;;;4.60;99.90;;;;;;5034312;28;20196;-86
2023/12/13 09:42:00;;;;;;;76.53;32.80;;;4.50;99.90;;;;;;5034577;28;20243;-84
2023/12/13 09:44:50;;;;;;;72.67;32.40;;;4.50;99.90;;;;;;5033585;28;20222;-84
2023/12/13 09:47:38;;;;;;;75.57;32.70;;;4.50;99.90;;;;;;5035063;28;20192;-88
2023/12/13 09:50:27;;;;;;;72.33;32.80;;;4.50;99.90;;;;;;5034494;28;20652;-85
2023/12/13 09:53:27;;;;;;;68.07;31.47;;;4.50;99.90;;;;;;5034766;28;20207;-84
2023/12/13 09:56:15;;;;;;;69.00;31.57;;;4.40;99.90;;;;;;5033315;28;20236;-83
2023/12/13 09:59:02;;;;;;;66.67;32.23;;;4.40;99.90;;;;;;5036118;28;20191;-84
2023/12/13 10:01:50;;;;;;;64.00;30.93;;;4.40;99.90;;;;;;5034314;28;20204;-82
2023/12/13 10:04:39;;;;;;;64.80;30.77;;;4.30;99.90;;;;;;5033112;28;20195;-82
2023/12/13 10:07:28;;;;;;;65.30;30.20;;;4.30;99.90;;;;;;5033211;28;20200;-84
2023/12/13 10:10:15;;;;;;;66.47;31.50;;;4.30;99.90;;;;;;5034485;28;20199;-86
2023/12/13 10:13:03;;;;;;;70.53;31.67;;;4.40;99.90;;;;;;5034775;28;20664;-83
2023/12/13 10:15:51;;;;;;;68.57;32.20;;;4.50;99.90;;;;;;5033396;28;20219;-84
2023/12/13 10:18:40;;;;;;;62.63;30.20;;;4.40;99.90;;;;;;5033945;28;20650;-84
2023/12/13 10:21:29;;;;;;;62.07;29.13;;;4.40;99.90;;;;;;5034447;28;20202;-84
2023/12/13 10:24:16;;;;;;;57.57;27.10;;;4.50;99.90;;;;;;5034918;28;20200;-84
2023/12/13 10:27:13;;;;;;;49.93;26.37;;;4.50;99.90;;;;;;5032690;28;20303;-82
2023/12/13 10:30:03;;;;;;;57.13;26.23;;;4.50;99.90;;;;;;5032680;28;20744;-82
2023/12/13 10:32:50;;;;;;;50.83;26.43;;;4.50;99.90;;;;;;5033609;28;20199;-82
2023/12/13 10:35:37;;;;;;;52.27;25.87;;;4.50;99.90;;;;;;5034696;28;20289;-78
2023/12/13 10:38:26;;;;;;;45.60;23.93;;;4.50;99.90;;;;;;5034818;28;20725;-78
2023/12/13 10:41:15;;;;;;;47.13;23.77;;;4.60;99.90;;;;;;5032554;28;20688;-79
2023/12/13 10:44:06;;;;;;;50.33;24.97;;;4.70;99.90;;;;;;5033085;28;20657;-77
2023/12/13 10:46:58;;;;;;;47.33;23.60;;;4.60;99.90;;;;;;5032908;28;20605;-79
2023/12/13 10:49:46;;;;;;;52.07;24.90;;;4.70;99.90;;;;;;5035059;28;20218;-80
2023/12/13 10:52:34;;;;;;;44.00;24.50;;;4.60;99.90;;;;;;5034851;28;20572;-79
2023/12/13 10:55:24;;;;;;;52.43;25.67;;;4.70;99.90;;;;;;5032824;28;20314;-79
2023/12/13 10:58:12;;;;;;;49.33;24.60;;;4.60;99.90;;;;;;5032619;28;20200;-79
2023/12/13 11:01:01;;;;;;;48.90;24.50;;;4.70;99.90;;;;;;5031972;28;20207;-79
2023/12/13 11:04:05;;;;;;;54.63;27.43;;;4.70;99.90;;;;;;5033548;28;20231;-79
2023/12/13 11:06:53;;;;;;;53.53;27.17;;;4.80;99.90;;;;;;5033092;28;20289;-79
2023/12/13 11:09:54;;;;;;;56.80;27.20;;;4.80;99.90;;;;;;5031747;28;20364;-79
2023/12/13 11:12:49;;;;;;;53.30;26.43;;;4.80;99.90;;;;;;5033346;28;20616;-80
2023/12/13 11:15:43;;;;;;;56.03;27.73;;;4.80;99.90;;;;;;5033710;28;20252;-79
2023/12/13 11:18:32;;;;;;;61.57;30.57;;;4.90;99.90;;;;;;5034709;28;20282;-80
2023/12/13 11:21:33;;;;;;;67.50;30.43;;;4.80;99.90;;;;;;5031694;28;20210;-79
2023/12/13 11:24:26;;;;;;;62.03;29.43;;;4.80;99.90;;;;;;5033707;28;20630;-79
2023/12/13 11:27:14;;;;;;;64.73;31.20;;;4.70;99.90;;;;;;5032861;28;20290;-79
2023/12/13 11:30:15;;;;;;;67.57;32.23;;;4.70;99.90;;;;;;5033645;28;20192;-78
2023/12/13 11:33:11;;;;;;;63.63;30.77;;;4.50;99.90;;;;;;5031972;28;20189;-80
2023/12/13 11:35:59;;;;;;;61.07;29.63;;;4.50;99.90;;;;;;5032216;28;20216;-80
2023/12/13 11:38:51;;;;;;;64.37;30.27;;;4.50;99.90;;;;;;5032152;28;20276;-79
2023/12/13 11:41:39;;;;;;;62.03;30.27;;;4.60;99.90;;;;;;5032230;28;20358;-79
2023/12/13 11:44:30;;;;;;;66.83;30.77;;;4.60;99.90;;;;;;5032200;28;20200;-78
2023/12/13 11:47:18;;;;;;;62.23;29.47;;;4.50;99.90;;;;;;5034338;28;20200;-88
2023/12/13 11:50:07;;;;;;;67.77;30.10;;;4.40;99.90;;;;;;5031421;28;20256;-85
2023/12/13 11:52:58;;;;;;;59.57;28.27;;;4.50;99.90;;;;;;5033411;28;20519;-87
2023/12/13 11:55:46;;;;;;;60.67;27.90;;;4.50;99.90;;;;;;5031570;28;20284;-80
2023/12/13 11:58:33;;;;;;;60.03;28.50;;;4.50;99.90;;;;;;5032046;28;20278;-79
2023/12/13 12:01:20;;;;;;;57.90;26.87;;;4.40;99.90;;;;;;5032155;28;20191;-80
2023/12/13 12:04:09;;;;;;;58.17;27.17;;;4.40;99.90;;;;;;5031108;28;20245;-79
2023/12/13 12:06:57;;;;;;;61.27;27.53;;;4.50;99.90;;;;;;5032481;28;20195;-80
2023/12/13 12:09:49;;;;;;;56.33;25.80;;;4.50;99.90;;;;;;5032354;28;20220;-79
2023/12/13 12:12:37;;;;;;;55.27;25.77;;;4.50;99.90;;;;;;5035419;28;20231;-80
2023/12/13 12:15:26;;;;;;;53.93;24.20;;;4.50;99.90;;;;;;5031639;28;20227;-80
2023/12/13 12:18:13;;;;;;;51.20;24.03;;;4.30;99.90;;;;;;5031764;28;20686;-81
2023/12/13 12:21:01;;;;;;;53.03;23.87;;;4.40;99.90;;;;;;5030605;28;20253;-79
2023/12/13 12:23:49;;;;;;;49.80;24.00;;;4.40;99.90;;;;;;5032935;28;20196;-78
2023/12/13 12:26:37;;;;;;;50.00;23.40;;;4.40;99.90;;;;;;5032266;28;20274;-79
2023/12/13 12:29:24;;;;;;;50.33;24.03;;;4.40;99.90;;;;;;5031193;28;20254;-81
2023/12/13 12:32:12;;;;;;;59.23;25.93;;;4.40;99.90;;;;;;5032278;28;20256;-80
2023/12/13 12:35:02;;;;;;;57.77;26.10;;;4.50;99.90;;;;;;5035779;28;20218;-80
2023/12/13 12:37:50;;;;;;;57.63;25.37;;;4.50;99.90;;;;;;5036365;28;20199;-80
2023/12/13 12:40:38;;;;;;;53.33;25.10;;;4.40;99.90;;;;;;5036273;28;20575;-80
2023/12/13 12:43:25;;;;;;;55.43;24.87;;;4.40;99.90;;;;;;5036369;28;20206;-80
2023/12/13 12:46:13;;;;;;;57.63;26.30;;;4.30;99.90;;;;;;5036130;28;20187;-80
2023/12/13 12:49:00;;;;;;;57.20;25.50;;;4.20;99.90;;;;;;5035829;28;20231;-80
2023/12/13 12:51:48;;;;;;;60.00;26.60;;;4.20;99.90;;;;;;5035087;28;20214;-80
2023/12/13 12:54:35;;;;;;;55.97;25.93;;;4.10;99.90;;;;;;5035714;28;20191;-80
2023/12/13 12:57:23;;;;;;;55.30;24.80;;;4.10;99.90;;;;;;5035764;28;20273;-81
2023/12/13 13:00:11;;;;;;;54.23;26.27;;;4.10;99.90;;;;;;5035430;28;20237;-79
2023/12/13 13:03:00;;;;;;;52.33;25.43;;;4.10;99.90;;;;;;5034782;28;20695;-80
2023/12/13 13:05:48;;;;;;;51.70;24.67;;;4.10;99.90;;;;;;5035998;28;20210;-80
2023/12/13 13:08:36;;;;;;;52.93;24.20;;;4.00;99.90;;;;;;5035970;28;20223;-80
2023/12/13 13:11:23;;;;;;;50.00;23.50;;;4.00;99.90;;;;;;5035044;28;20301;-79
2023/12/13 13:14:10;;;;;;;48.10;22.40;;;4.10;99.90;;;;;;5035637;28;20658;-80
2023/12/13 13:16:58;;;;;;;48.17;22.47;;;4.10;99.90;;;;;;5035490;28;20222;-85
2023/12/13 13:19:46;;;;;;;46.63;21.83;;;4.20;99.90;;;;;;5035528;28;20655;-78
2023/12/13 13:22:34;;;;;;;51.33;23.73;;;4.20;99.90;;;;;;5035523;28;20191;-80
2023/12/13 13:25:22;;;;;;;46.50;21.97;;;4.20;99.90;;;;;;5033836;28;20199;-80
2023/12/13 13:28:09;;;;;;;43.27;21.17;;;4.20;99.90;;;;;;5033578;28;20193;-80
2023/12/13 13:30:56;;;;;;;45.50;20.93;;;4.20;99.90;;;;;;5034401;28;20223;-81
2023/12/13 13:33:44;;;;;;;38.67;19.80;;;4.20;99.90;;;;;;5035309;28;20203;-80
2023/12/13 13:36:32;;;;;;;46.23;21.43;;;4.30;99.90;;;;;;5034170;28;20687;-81
2023/12/13 13:39:20;;;;;;;43.03;21.13;;;4.30;99.90;;;;;;5034998;28;20326;-80
2023/12/13 13:42:09;;;;;;;46.33;21.73;;;4.30;99.90;;;;;;5036090;28;20673;-80
2023/12/13 13:44:56;;;;;;;46.17;21.50;;;4.40;99.90;;;;;;5034025;28;20246;-80
2023/12/13 13:47:43;;;;;;;41.60;21.17;;;4.40;99.90;;;;;;5034406;28;20197;-80
2023/12/13 13:50:31;;;;;;;42.20;20.47;;;4.40;99.90;;;;;;5035163;28;20198;-81
2023/12/13 13:53:19;;;;;;;42.53;20.17;;;4.40;99.90;;;;;;5035818;28;20652;-86
2023/12/13 13:56:07;;;;;;;47.07;20.67;;;4.40;99.90;;;;;;5035727;28;20231;-81
2023/12/13 13:58:55;;;;;;;46.17;20.80;;;4.40;99.90;;;;;;5035567;28;20196;-85
2023/12/13 14:01:43;;;;;;;43.50;20.27;;;4.40;99.90;;;;;;5033611;28;20644;-84
2023/12/13 14:04:31;;;;;;;43.07;19.70;;;4.30;99.90;;;;;;5034523;28;20633;-86
2023/12/13 14:07:19;;;;;;;42.87;20.10;;;4.40;99.90;;;;;;5034205;28;20205;-84
2023/12/13 14:10:07;;;;;;;40.50;19.73;;;4.40;99.90;;;;;;5035015;28;20601;-82
2023/12/13 14:12:54;;;;;;;44.00;20.80;;;4.40;99.90;;;;;;5035024;28;20232;-82
2023/12/13 14:15:42;;;;;;;42.07;19.50;;;4.40;99.90;;;;;;5035336;28;20215;-82
2023/12/13 14:18:29;;;;;;;42.97;20.47;;;4.40;99.90;;;;;;5034215;28;20289;-82
2023/12/13 14:21:17;;;;;;;40.63;19.80;;;4.40;99.90;;;;;;5033764;28;20196;-82
2023/12/13 14:24:05;;;;;;;39.47;19.43;;;4.40;99.90;;;;;;5033263;28;20673;-83